LAS weather

McCarran International Airport
Las Vegas, Nevada, United States

Public forecast

Using degrees Fahrenheit for public forecast. Weather courtesy of forecast.io.

METAR (pilot weather report)

Retrieved 2018/06/19 07:56 UTC (10 minutes ago):

KLAS 190756Z 21005KT 10SM CLR 27/M04 A2987 RMK AO2 SLP086 T02721044 403440206

TAF (pilot weather forecast)

Retrieved 2018/06/19 06:22 UTC (2 hours ago):

TAF KLAS 190520Z 1906/2012 23008KT P6SM SKC FM191600 VRB05KT P6SM SCT250 FM192100 11006KT P6SM SCT250 FM200400 22007KT P6SM SKC